Time;durP1;ratioP1;P1;durP2;ratioP2;P2;SDS_P1;SDS_P2;PMS_P1;PMS_P2;Temp;Humidity;BMP_temperature;BMP_pressure;BME280_temperature;BME280_humidity;BME280_pressure;Samples;Min_cycle;Max_cycle;Signal;HPM_P1;HPM_P2
2022/01/22 00:00:18;;;;;;;22.23;5.22;;;6.00;99.90;;;;;;5007247;28;20049;-74
2022/01/22 00:02:45;;;;;;;18.95;4.90;;;6.00;99.90;;;;;;5000426;28;20044;-74
2022/01/22 00:05:12;;;;;;;18.95;5.97;;;6.00;99.90;;;;;;5009884;28;20057;-73
2022/01/22 00:07:38;;;;;;;17.45;4.65;;;6.00;99.90;;;;;;5008888;28;20443;-73
2022/01/22 00:10:07;;;;;;;19.60;4.85;;;6.10;99.90;;;;;;5006725;28;20042;-74
2022/01/22 00:15:08;;;;;;;14.75;4.82;;;6.10;99.90;;;;;;5009182;28;20046;-74
2022/01/22 00:17:34;;;;;;;22.38;5.07;;;6.10;99.90;;;;;;5009635;28;20038;-74
2022/01/22 00:19:59;;;;;;;19.58;4.72;;;6.10;99.90;;;;;;5014461;28;20382;-74
2022/01/22 00:22:29;;;;;;;18.95;5.20;;;6.10;99.90;;;;;;5021154;28;20056;-74
2022/01/22 00:24:58;;;;;;;17.55;4.40;;;6.10;99.90;;;;;;5009754;28;20137;-74
2022/01/22 00:27:25;;;;;;;18.75;5.80;;;6.10;99.90;;;;;;5007944;28;20049;-74
2022/01/22 00:29:50;;;;;;;20.23;5.60;;;6.10;99.90;;;;;;5004848;28;20635;-74
2022/01/22 00:32:16;;;;;;;21.83;4.85;;;6.10;99.90;;;;;;5007457;28;20041;-74
2022/01/22 00:34:43;;;;;;;23.25;5.47;;;6.10;99.90;;;;;;5012309;28;20046;-74
2022/01/22 00:37:09;;;;;;;16.67;4.60;;;6.20;99.90;;;;;;5016663;28;20068;-74
2022/01/22 00:39:35;;;;;;;19.65;5.72;;;6.20;99.90;;;;;;5015734;28;20085;-74
2022/01/22 00:42:04;;;;;;;19.40;5.15;;;6.20;99.90;;;;;;5010350;28;20064;-74
2022/01/22 00:44:29;;;;;;;14.98;4.50;;;6.20;99.90;;;;;;5008812;28;20065;-74
2022/01/22 00:46:55;;;;;;;19.77;5.25;;;6.20;99.90;;;;;;5008852;28;20045;-74
2022/01/22 00:49:21;;;;;;;16.95;4.88;;;6.20;99.90;;;;;;5011921;28;20409;-74
2022/01/22 00:51:46;;;;;;;21.27;5.53;;;6.20;99.90;;;;;;5008306;28;20472;-74
2022/01/22 00:54:12;;;;;;;15.48;4.97;;;6.20;99.90;;;;;;5013680;28;20057;-74
2022/01/22 00:56:37;;;;;;;17.30;5.03;;;6.20;99.90;;;;;;5022677;28;20125;-74
2022/01/22 00:59:03;;;;;;;12.50;4.57;;;6.20;99.90;;;;;;5000246;28;20046;-74
2022/01/22 01:01:29;;;;;;;18.08;5.07;;;6.20;99.90;;;;;;5007333;28;20489;-74
2022/01/22 01:04:01;;;;;;;22.73;5.57;;;6.30;99.90;;;;;;5009652;28;20049;-74
2022/01/22 01:06:26;;;;;;;19.08;4.70;;;6.20;99.90;;;;;;5009674;28;20122;-74
2022/01/22 01:08:52;;;;;;;16.98;5.20;;;6.20;99.90;;;;;;5010593;28;20074;-74
2022/01/22 01:11:18;;;;;;;16.52;4.70;;;6.30;99.90;;;;;;5014553;28;20125;-73
2022/01/22 01:13:47;;;;;;;18.00;4.85;;;6.30;99.90;;;;;;5009833;28;20037;-73
2022/01/22 01:16:22;;;;;;;12.10;5.00;;;6.30;99.90;;;;;;5016582;28;20068;-73
2022/01/22 01:32:46;;;;;;;12.25;4.30;;;6.30;99.90;;;;;;5009169;28;20038;-74
2022/01/22 01:35:12;;;;;;;19.27;4.97;;;6.30;99.90;;;;;;5013064;28;20042;-74
2022/01/22 01:37:38;;;;;;;15.38;4.32;;;6.30;99.90;;;;;;5009567;28;20037;-74
2022/01/22 01:40:06;;;;;;;14.85;4.60;;;6.30;99.90;;;;;;5009850;28;20099;-74
2022/01/22 01:45:01;;;;;;;11.13;4.07;;;6.30;99.90;;;;;;5009577;28;20494;-74
2022/01/22 01:47:26;;;;;;;10.55;4.00;;;6.30;99.90;;;;;;5010558;28;20697;-74
2022/01/22 01:49:52;;;;;;;14.85;4.93;;;6.30;99.90;;;;;;5008475;28;20121;-74
2022/01/22 01:52:25;;;;;;;15.52;4.90;;;6.30;99.90;;;;;;5014656;28;20092;-74
2022/01/22 01:55:10;;;;;;;14.02;4.32;;;6.40;99.90;;;;;;5012107;28;20050;-72
2022/01/22 01:57:42;;;;;;;12.95;4.70;;;6.40;99.90;;;;;;5010425;28;20124;-74
2022/01/22 02:00:12;;;;;;;16.05;4.57;;;6.40;99.90;;;;;;5001258;28;20648;-74
2022/01/22 02:02:39;;;;;;;12.73;4.57;;;6.40;99.90;;;;;;5008732;28;20072;-74
2022/01/22 02:05:08;;;;;;;14.48;4.50;;;6.40;99.90;;;;;;5008513;28;20050;-74
2022/01/22 02:07:37;;;;;;;14.77;4.50;;;6.40;99.90;;;;;;5001261;28;20040;-74
2022/01/22 02:10:04;;;;;;;19.67;4.93;;;6.40;99.90;;;;;;5009428;28;20041;-74
2022/01/22 02:25:56;;;;;;;15.10;4.30;;;6.40;99.90;;;;;;5013817;28;20107;-74
2022/01/22 02:28:22;;;;;;;12.88;4.72;;;6.40;99.90;;;;;;5010184;28;20046;-74
2022/01/22 02:30:51;;;;;;;14.40;4.20;;;6.40;99.90;;;;;;5005702;28;20977;-74
2022/01/22 02:38:19;;;;;;;9.98;3.83;;;6.50;99.90;;;;;;5007636;28;20046;-74
2022/01/22 02:40:47;;;;;;;9.50;3.80;;;6.50;99.90;;;;;;5007872;28;20507;-74
2022/01/22 02:43:14;;;;;;;11.48;3.83;;;6.50;99.90;;;;;;5008105;28;20045;-74
2022/01/22 02:45:42;;;;;;;13.45;3.78;;;6.50;99.90;;;;;;5024753;28;20507;-74
2022/01/22 02:48:08;;;;;;;13.15;4.00;;;6.50;99.90;;;;;;5018811;28;20038;-74
2022/01/22 02:50:34;;;;;;;11.35;3.90;;;6.50;99.90;;;;;;5007922;28;20053;-74
2022/01/22 02:53:05;;;;;;;9.38;3.20;;;6.50;99.90;;;;;;5019476;28;20045;-73
2022/01/22 02:55:31;;;;;;;11.15;3.85;;;6.50;99.90;;;;;;5008258;28;20378;-74
2022/01/22 02:57:56;;;;;;;11.60;3.28;;;6.50;99.90;;;;;;5011972;28;20038;-74
2022/01/22 03:00:23;;;;;;;9.00;3.35;;;6.50;99.90;;;;;;5016688;28;20519;-74
2022/01/22 03:02:50;;;;;;;10.47;3.30;;;6.60;99.90;;;;;;5010817;28;20065;-74
2022/01/22 03:05:16;;;;;;;15.00;3.45;;;6.60;99.90;;;;;;5007454;28;20504;-74
2022/01/22 03:07:45;;;;;;;9.10;3.10;;;6.60;99.90;;;;;;5007993;28;20042;-74
2022/01/22 03:10:13;;;;;;;5.72;2.40;;;6.60;99.90;;;;;;5011729;28;20068;-74
2022/01/22 03:18:08;;;;;;;9.75;2.67;;;6.60;99.90;;;;;;5015841;28;20038;-74
2022/01/22 03:20:46;;;;;;;6.53;3.03;;;6.60;99.90;;;;;;5009560;28;20093;-74
2022/01/22 03:27:20;;;;;;;7.90;3.10;;;6.60;99.90;;;;;;5009927;28;20564;-74
2022/01/22 03:28:55;;;;;;;11.43;3.13;;;6.60;99.90;;;;;;5014119;28;20042;-74
2022/01/22 03:31:22;;;;;;;9.73;3.50;;;6.70;99.90;;;;;;5018506;28;20053;-74
2022/01/22 03:33:47;;;;;;;10.30;3.63;;;6.70;99.90;;;;;;5013905;28;20241;-73
2022/01/22 03:36:14;;;;;;;10.20;3.63;;;6.70;99.90;;;;;;5004409;28;20727;-73
2022/01/22 03:38:40;;;;;;;9.43;4.13;;;6.70;99.90;;;;;;5010688;28;20042;-73
2022/01/22 03:41:06;;;;;;;12.68;3.30;;;6.70;99.90;;;;;;5012250;28;20055;-73
2022/01/22 03:43:31;;;;;;;10.73;3.47;;;6.70;99.90;;;;;;5014591;28;20067;-72
2022/01/22 03:45:57;;;;;;;10.63;3.30;;;6.70;99.90;;;;;;5009390;28;20046;-74
2022/01/22 03:48:22;;;;;;;12.80;3.30;;;6.70;99.90;;;;;;5004318;28;20038;-74
2022/01/22 03:50:49;;;;;;;15.68;3.00;;;6.70;99.90;;;;;;5007763;28;20390;-74
2022/01/22 03:53:16;;;;;;;10.07;2.90;;;6.70;99.90;;;;;;5008236;28;20037;-74
2022/01/22 03:55:56;;;;;;;9.57;2.70;;;6.70;99.90;;;;;;5005382;28;20073;-74
2022/01/22 03:58:22;;;;;;;11.77;3.00;;;6.70;99.90;;;;;;5008336;28;20559;-74
2022/01/22 04:00:51;;;;;;;6.30;2.53;;;6.70;99.90;;;;;;5007989;28;20145;-74
2022/01/22 04:03:33;;;;;;;7.13;2.20;;;6.70;99.90;;;;;;5006271;28;20397;-74
2022/01/22 04:08:47;;;;;;;9.10;2.80;;;6.60;99.90;;;;;;4987821;28;20054;-74
2022/01/22 04:11:15;;;;;;;13.38;2.97;;;6.60;99.90;;;;;;5014667;28;20041;-74
2022/01/22 04:13:43;;;;;;;10.23;2.90;;;6.70;99.90;;;;;;5023980;28;20531;-73
2022/01/22 04:16:11;;;;;;;10.90;2.65;;;6.60;99.90;;;;;;5012049;28;20100;-73
2022/01/22 04:27:08;;;;;;;9.35;2.40;;;6.60;99.90;;;;;;5009326;28;20129;-74
2022/01/22 04:29:34;;;;;;;8.07;2.10;;;6.60;99.90;;;;;;5011725;28;20497;-73
2022/01/22 04:32:00;;;;;;;5.38;2.10;;;6.60;99.90;;;;;;5021353;28;20100;-74
2022/01/22 04:34:25;;;;;;;6.57;2.45;;;6.60;99.90;;;;;;5012112;28;20042;-74
2022/01/22 04:36:51;;;;;;;7.43;2.70;;;6.60;99.90;;;;;;5008552;28;20440;-74
2022/01/22 04:39:19;;;;;;;9.68;2.67;;;6.60;99.90;;;;;;5010903;28;20041;-73
2022/01/22 04:41:45;;;;;;;7.20;3.10;;;6.60;99.90;;;;;;5009406;28;20095;-74
2022/01/22 04:44:11;;;;;;;9.55;3.90;;;6.60;99.90;;;;;;5008639;28;20045;-75
2022/01/22 04:46:52;;;;;;;10.57;3.80;;;6.60;99.90;;;;;;5013141;28;20042;-74
2022/01/22 04:57:19;;;;;;;11.10;3.25;;;6.60;99.90;;;;;;5009673;28;20053;-74
2022/01/22 04:59:45;;;;;;;8.38;3.05;;;6.60;99.90;;;;;;5007466;28;20096;-75
2022/01/22 05:02:10;;;;;;;10.32;2.70;;;6.60;99.90;;;;;;5012175;28;20088;-75
2022/01/22 05:04:36;;;;;;;5.40;2.60;;;6.60;99.90;;;;;;5013570;28;20076;-75
2022/01/22 05:07:02;;;;;;;8.77;2.45;;;6.60;99.90;;;;;;5017274;28;20745;-75
2022/01/22 05:09:28;;;;;;;9.75;2.70;;;6.60;99.90;;;;;;5003082;28;20073;-75
2022/01/22 05:11:54;;;;;;;8.50;2.35;;;6.60;99.90;;;;;;5003791;28;20507;-74
2022/01/22 05:14:20;;;;;;;5.22;2.03;;;6.60;99.90;;;;;;5011228;28;20156;-74
2022/01/22 05:16:46;;;;;;;12.75;2.70;;;6.60;99.90;;;;;;5016520;28;20132;-74
2022/01/22 05:19:21;;;;;;;5.55;2.05;;;6.60;99.90;;;;;;5022310;28;20046;-75
2022/01/22 05:21:50;;;;;;;5.68;2.50;;;6.60;99.90;;;;;;5009383;28;20624;-74
2022/01/22 05:24:20;;;;;;;6.70;2.30;;;6.60;99.90;;;;;;5009624;28;20125;-74
2022/01/22 05:37:08;;;;;;;5.00;1.95;;;6.60;99.90;;;;;;5014913;28;20054;-75
2022/01/22 05:39:35;;;;;;;8.27;2.00;;;6.60;99.90;;;;;;5007997;28;20784;-75
2022/01/22 05:42:02;;;;;;;;;;;6.60;99.90;;;;;;5011520;28;20464;-75
2022/01/22 05:44:30;;;;;;;9.23;2.33;;;6.60;99.90;;;;;;5008752;28;19949;-75
2022/01/22 05:46:59;;;;;;;8.77;2.88;;;6.60;99.90;;;;;;5023601;28;20061;-75
2022/01/22 05:49:26;;;;;;;6.35;2.75;;;6.60;99.90;;;;;;5010436;28;20078;-75
2022/01/22 05:51:55;;;;;;;7.22;2.22;;;6.60;99.90;;;;;;5009553;28;20456;-75
2022/01/22 05:54:54;;;;;;;4.00;2.00;;;6.60;99.90;;;;;;5008063;28;20069;-74
2022/01/22 05:59:53;;;;;;;7.28;2.40;;;6.60;99.90;;;;;;5008897;28;20049;-74
2022/01/22 06:02:19;;;;;;;8.10;2.40;;;6.60;99.90;;;;;;5009526;28;20069;-75
2022/01/22 06:04:45;;;;;;;6.32;1.88;;;6.60;99.90;;;;;;5008490;28;20496;-74
2022/01/22 06:07:11;;;;;;;4.43;1.80;;;6.60;99.90;;;;;;5009530;28;20071;-74
2022/01/22 06:09:43;;;;;;;5.70;1.70;;;6.60;99.90;;;;;;5009204;28;20464;-74
2022/01/22 06:14:38;;;;;;;6.30;2.10;;;6.60;99.90;;;;;;5015402;28;21202;-74
2022/01/22 06:17:04;;;;;;;4.30;1.90;;;6.60;99.90;;;;;;5010063;28;20508;-74
2022/01/22 06:19:29;;;;;;;6.65;1.98;;;6.60;99.90;;;;;;5014894;28;20486;-74
2022/01/22 06:21:56;;;;;;;5.55;1.90;;;6.60;99.90;;;;;;5009185;28;20057;-74
2022/01/22 06:24:22;;;;;;;5.22;1.90;;;6.60;99.90;;;;;;5017709;28;20132;-74
2022/01/22 06:26:48;;;;;;;6.13;1.93;;;6.60;99.90;;;;;;5008354;28;20085;-74
2022/01/22 06:29:14;;;;;;;4.40;1.80;;;6.60;99.90;;;;;;5007223;28;20061;-74
2022/01/22 06:31:40;;;;;;;6.30;1.88;;;6.60;99.90;;;;;;5006534;28;20046;-74
2022/01/22 06:34:07;;;;;;;6.18;2.30;;;6.60;99.90;;;;;;5008580;28;20049;-74
2022/01/22 06:36:33;;;;;;;6.88;2.13;;;6.60;99.90;;;;;;5008023;28;20129;-74
2022/01/22 06:39:15;;;;;;;5.20;1.70;;;6.60;99.90;;;;;;5009396;28;20626;-74
2022/01/22 06:41:45;;;;;;;4.15;1.85;;;6.60;99.90;;;;;;5007123;28;20060;-74
2022/01/22 06:44:22;;;;;;;4.63;2.00;;;6.60;99.90;;;;;;5017641;28;20435;-74
2022/01/22 06:46:51;;;;;;;6.45;1.70;;;6.60;99.90;;;;;;4992212;28;20474;-74
2022/01/22 06:49:17;;;;;;;10.50;2.00;;;6.60;99.90;;;;;;5009104;28;20049;-74
2022/01/22 06:51:43;;;;;;;2.83;1.40;;;6.60;99.90;;;;;;5006820;28;20049;-74
2022/01/22 06:54:10;;;;;;;5.32;2.10;;;6.60;99.90;;;;;;5015755;28;20083;-74
2022/01/22 06:56:40;;;;;;;;;;;6.50;99.90;;;;;;5009077;28;20120;-74
2022/01/22 06:59:08;;;;;;;6.47;1.92;;;6.60;99.90;;;;;;5014520;28;19921;-73
2022/01/22 07:01:34;;;;;;;5.78;2.00;;;6.60;99.90;;;;;;5004007;28;20405;-74
2022/01/22 07:04:00;;;;;;;6.85;2.20;;;6.60;99.90;;;;;;5006794;28;20045;-74
2022/01/22 07:06:26;;;;;;;8.80;2.45;;;6.60;99.90;;;;;;5015896;28;20053;-74
2022/01/22 07:08:51;;;;;;;6.20;2.25;;;6.60;99.90;;;;;;5019265;28;20065;-74
2022/01/22 07:11:17;;;;;;;11.75;2.47;;;6.60;99.90;;;;;;5008111;28;20046;-74
2022/01/22 07:13:43;;;;;;;8.20;2.47;;;6.60;99.90;;;;;;5013986;28;20045;-74
2022/01/22 07:16:09;;;;;;;7.82;2.40;;;6.60;99.90;;;;;;5027400;28;20095;-74
2022/01/22 07:18:35;;;;;;;9.98;2.58;;;6.60;99.90;;;;;;5021665;28;20053;-74
2022/01/22 07:21:09;;;;;;;9.50;2.80;;;6.60;99.90;;;;;;5005073;28;20062;-74
2022/01/22 07:26:01;;;;;;;7.00;2.22;;;6.50;99.90;;;;;;5005797;28;20077;-74
2022/01/22 07:28:27;;;;;;;7.53;2.70;;;6.60;99.90;;;;;;5004085;28;20338;-73
2022/01/22 07:30:53;;;;;;;8.50;2.55;;;6.50;99.90;;;;;;5004960;28;20034;-74
2022/01/22 07:33:20;;;;;;;10.48;2.72;;;6.50;99.90;;;;;;5004568;28;20188;-74
2022/01/22 07:35:47;;;;;;;8.50;2.42;;;6.50;99.90;;;;;;5006383;28;20046;-74
2022/01/22 07:38:13;;;;;;;9.05;2.60;;;6.50;99.90;;;;;;5010696;28;20116;-74
2022/01/22 07:40:38;;;;;;;8.30;2.67;;;6.60;99.90;;;;;;5006469;28;20140;-74
2022/01/22 07:43:04;;;;;;;7.60;2.85;;;6.60;99.90;;;;;;5004287;28;20046;-74
2022/01/22 07:45:30;;;;;;;7.05;2.72;;;6.60;99.90;;;;;;5008502;28;20065;-75
2022/01/22 07:47:55;;;;;;;5.10;2.30;;;6.60;99.90;;;;;;5013321;28;20042;-74
2022/01/22 07:50:21;;;;;;;6.93;2.67;;;6.60;99.90;;;;;;5009409;28;20050;-75
2022/01/22 07:52:47;;;;;;;8.40;2.78;;;6.60;99.90;;;;;;5007779;28;20034;-75
2022/01/22 07:55:16;;;;;;;8.63;2.97;;;6.60;99.90;;;;;;5013419;28;20049;-75
2022/01/22 07:57:41;;;;;;;8.40;2.90;;;6.60;99.90;;;;;;5013911;28;20054;-74
2022/01/22 08:00:08;;;;;;;9.23;3.00;;;6.60;99.90;;;;;;5013047;28;20056;-75
2022/01/22 08:02:33;;;;;;;7.13;2.35;;;6.60;99.90;;;;;;5011326;28;20041;-74
2022/01/22 08:04:59;;;;;;;6.50;3.03;;;6.60;99.90;;;;;;5011088;28;20139;-74
2022/01/22 08:07:25;;;;;;;6.88;2.83;;;6.60;99.90;;;;;;5012787;28;20052;-74
2022/01/22 08:09:50;;;;;;;11.00;3.80;;;6.60;99.90;;;;;;5012355;28;20050;-74
2022/01/22 08:12:17;;;;;;;13.55;4.88;;;6.60;99.90;;;;;;5017107;28;20041;-74
2022/01/22 08:14:43;;;;;;;22.50;8.95;;;6.60;99.90;;;;;;5024028;28;20052;-74
2022/01/22 08:17:09;;;;;;;30.20;12.80;;;6.60;99.90;;;;;;5013504;28;20042;-74
2022/01/22 08:19:35;;;;;;;19.17;9.68;;;6.60;99.90;;;;;;5013682;28;20052;-74
2022/01/22 08:22:00;;;;;;;11.75;4.20;;;6.60;99.90;;;;;;5013217;28;20405;-74
2022/01/22 08:24:27;;;;;;;8.63;3.40;;;6.60;99.90;;;;;;5009573;28;20668;-74
2022/01/22 08:29:35;;;;;;;10.07;5.75;;;6.60;99.90;;;;;;5024417;28;20049;-74
2022/01/22 08:32:09;;;;;;;15.68;8.38;;;6.60;99.90;;;;;;5012735;28;20036;-74
2022/01/22 08:37:19;;;;;;;9.18;4.25;;;6.70;99.90;;;;;;4994904;28;20058;-74
2022/01/22 08:39:45;;;;;;;11.15;6.70;;;6.70;99.90;;;;;;5010606;28;20057;-73
2022/01/22 08:42:10;;;;;;;9.65;5.47;;;6.70;99.90;;;;;;5013039;28;20049;-74
2022/01/22 08:44:36;;;;;;;8.57;6.07;;;6.70;99.90;;;;;;5013339;28;20504;-74
2022/01/22 08:47:02;;;;;;;6.53;3.05;;;6.70;99.90;;;;;;5011096;28;20033;-74
2022/01/22 08:49:28;;;;;;;5.10;3.00;;;6.70;99.90;;;;;;5015981;28;20065;-74
2022/01/22 08:51:54;;;;;;;4.10;2.40;;;6.70;99.90;;;;;;5011548;28;20061;-74
2022/01/22 08:54:20;;;;;;;3.92;2.25;;;6.70;99.90;;;;;;5015353;28;20053;-74
2022/01/22 08:56:46;;;;;;;3.50;1.92;;;6.70;99.90;;;;;;5021154;28;20068;-75
2022/01/22 08:59:12;;;;;;;4.85;2.40;;;6.70;99.90;;;;;;5009500;28;20107;-73
2022/01/22 09:01:40;;;;;;;3.17;1.97;;;6.70;99.90;;;;;;5009242;28;20045;-73
2022/01/22 09:04:06;;;;;;;4.30;1.92;;;6.70;99.90;;;;;;5009130;28;20416;-76
2022/01/22 09:06:32;;;;;;;3.83;2.00;;;6.70;99.90;;;;;;5013561;28;20042;-73
2022/01/22 09:09:08;;;;;;;3.55;1.70;;;6.70;99.90;;;;;;5004931;28;20045;-71
2022/01/22 09:11:34;;;;;;;4.10;1.52;;;6.80;99.90;;;;;;5008554;28;20042;-73
2022/01/22 09:14:00;;;;;;;4.50;1.98;;;6.80;99.90;;;;;;5013804;28;20492;-73
2022/01/22 09:16:26;;;;;;;3.05;1.40;;;6.70;99.90;;;;;;5008731;28;20054;-73
2022/01/22 09:18:53;;;;;;;5.25;1.95;;;6.70;99.90;;;;;;5006670;28;20048;-72
2022/01/22 09:21:19;;;;;;;6.70;2.53;;;6.70;99.90;;;;;;5009889;28;20058;-72
2022/01/22 09:23:45;;;;;;;4.70;2.17;;;6.70;99.90;;;;;;5009751;28;20049;-72
2022/01/22 09:26:11;;;;;;;3.78;2.20;;;6.70;99.90;;;;;;5010417;28;20042;-73
2022/01/22 09:28:37;;;;;;;5.10;2.28;;;6.70;99.90;;;;;;5008940;28;20104;-72
2022/01/22 09:31:03;;;;;;;5.47;2.47;;;6.70;99.90;;;;;;4992083;28;20053;-74
2022/01/22 09:33:29;;;;;;;5.45;2.17;;;6.80;99.90;;;;;;5009093;28;20041;-74
2022/01/22 09:35:55;;;;;;;2.28;1.40;;;6.80;99.90;;;;;;5011030;28;20042;-73
2022/01/22 09:38:21;;;;;;;4.47;1.60;;;6.80;99.90;;;;;;5029063;28;20048;-74
2022/01/22 09:40:47;;;;;;;5.30;1.33;;;6.80;99.90;;;;;;5028454;28;20493;-72
2022/01/22 09:43:13;;;;;;;3.38;1.25;;;6.80;99.90;;;;;;5012941;28;20044;-73
2022/01/22 09:45:39;;;;;;;4.88;1.65;;;6.80;99.90;;;;;;5010993;28;20037;-73
2022/01/22 09:48:04;;;;;;;4.43;1.42;;;6.80;99.90;;;;;;5010280;28;20129;-71
2022/01/22 09:50:31;;;;;;;5.53;1.30;;;6.90;99.90;;;;;;5008645;28;20044;-74
2022/01/22 09:52:57;;;;;;;4.93;2.05;;;6.90;99.90;;;;;;5008912;28;20485;-73
2022/01/22 09:55:23;;;;;;;3.80;1.50;;;7.00;99.90;;;;;;5010250;28;20053;-73
2022/01/22 09:57:49;;;;;;;4.57;1.50;;;7.00;99.90;;;;;;5009259;28;20042;-73
2022/01/22 10:00:18;;;;;;;6.53;1.80;;;7.00;99.90;;;;;;5007531;28;20069;-72
2022/01/22 10:02:49;;;;;;;6.97;2.30;;;7.00;99.90;;;;;;5009793;28;20046;-72
2022/01/22 10:05:28;;;;;;;7.55;2.13;;;7.00;99.90;;;;;;5009729;28;20445;-72
2022/01/22 10:07:54;;;;;;;6.38;1.85;;;7.00;99.90;;;;;;5007433;28;20045;-72
2022/01/22 10:10:20;;;;;;;5.10;2.15;;;6.90;99.90;;;;;;5009478;28;20044;-72
2022/01/22 10:12:50;;;;;;;8.27;2.60;;;6.90;99.90;;;;;;5006478;28;20045;-71
2022/01/22 10:15:16;;;;;;;8.32;3.30;;;6.90;99.90;;;;;;5008163;28;20038;-72
2022/01/22 10:17:48;;;;;;;11.52;5.30;;;6.90;99.90;;;;;;5009581;28;20413;-72
2022/01/22 10:20:26;;;;;;;14.20;6.45;;;6.90;99.90;;;;;;5010243;28;20111;-72
2022/01/22 10:22:55;;;;;;;9.82;4.43;;;7.00;99.90;;;;;;5006936;28;20104;-73
2022/01/22 10:25:21;;;;;;;7.55;2.97;;;6.90;99.90;;;;;;5005107;28;20528;-72
2022/01/22 10:28:02;;;;;;;10.63;3.38;;;6.90;99.90;;;;;;5009200;28;20042;-72
2022/01/22 10:30:40;;;;;;;7.47;2.38;;;7.00;99.90;;;;;;5009233;28;20440;-72
2022/01/22 10:33:27;;;;;;;11.02;3.70;;;6.90;99.90;;;;;;5010828;28;20068;-72
2022/01/22 10:35:55;;;;;;;7.88;2.80;;;6.90;99.90;;;;;;5007462;28;20049;-72
2022/01/22 10:38:21;;;;;;;8.23;2.65;;;6.90;99.90;;;;;;5008532;28;20049;-72
2022/01/22 10:40:49;;;;;;;9.30;2.75;;;6.90;99.90;;;;;;5007191;28;20468;-73
2022/01/22 10:43:28;;;;;;;5.43;2.90;;;7.00;99.90;;;;;;5009577;28;20077;-73
2022/01/22 10:48:53;;;;;;;6.82;3.35;;;7.00;99.90;;;;;;5008165;28;20459;-72
2022/01/22 10:51:20;;;;;;;9.02;3.00;;;7.00;99.90;;;;;;5009784;28;20058;-71
2022/01/22 10:53:53;;;;;;;8.70;3.30;;;7.00;99.90;;;;;;5008033;28;20034;-72
2022/01/22 10:56:22;;;;;;;6.20;3.40;;;7.10;99.90;;;;;;5005563;28;20417;-72
2022/01/22 10:58:59;;;;;;;6.32;3.22;;;7.10;99.90;;;;;;5007440;28;20073;-72
2022/01/22 11:01:30;;;;;;;7.37;3.40;;;7.10;99.90;;;;;;5009823;28;20057;-71
2022/01/22 11:04:11;;;;;;;7.40;3.50;;;7.10;99.90;;;;;;5004273;28;20288;-72
2022/01/22 11:06:46;;;;;;;8.07;3.25;;;7.20;99.90;;;;;;5008605;28;20489;-71
2022/01/22 11:09:12;;;;;;;7.15;3.03;;;7.10;99.90;;;;;;5006556;28;20135;-71
2022/01/22 11:11:40;;;;;;;9.50;3.70;;;7.20;99.90;;;;;;5007195;28;20450;-72
2022/01/22 11:14:08;;;;;;;7.22;3.55;;;7.20;99.90;;;;;;5005924;28;20041;-71
2022/01/22 11:16:34;;;;;;;;;;;7.20;99.90;;;;;;5007775;28;20085;-71
2022/01/22 11:19:02;;;;;;;9.35;4.20;;;7.20;99.90;;;;;;5006994;28;19922;-70
2022/01/22 11:21:30;;;;;;;9.52;4.00;;;7.20;99.90;;;;;;5001030;28;20053;-71
2022/01/22 11:23:55;;;;;;;10.93;4.13;;;7.20;99.90;;;;;;4985870;28;20048;-71
2022/01/22 11:26:21;;;;;;;7.55;3.67;;;7.20;99.90;;;;;;4991200;28;20054;-71
2022/01/22 11:28:51;;;;;;;8.73;3.78;;;7.20;99.90;;;;;;4988974;28;20046;-71
2022/01/22 11:31:17;;;;;;;11.90;3.80;;;7.20;99.90;;;;;;4971727;28;20054;-72
2022/01/22 11:33:46;;;;;;;9.48;4.05;;;7.20;99.90;;;;;;4987087;28;20042;-72
2022/01/22 11:36:39;;;;;;;8.13;3.65;;;7.20;99.90;;;;;;4971431;28;20061;-71
2022/01/22 11:39:06;;;;;;;9.82;4.25;;;7.20;99.90;;;;;;4987727;28;20054;-71
2022/01/22 11:41:32;;;;;;;12.63;3.87;;;7.30;99.90;;;;;;4988781;28;20096;-72
2022/01/22 11:46:34;;;;;;;10.00;3.15;;;7.30;99.90;;;;;;4975259;28;20137;-71
2022/01/22 11:49:17;;;;;;;7.82;3.10;;;7.40;99.90;;;;;;4983160;28;20493;-72
2022/01/22 11:51:45;;;;;;;10.27;3.38;;;7.40;99.90;;;;;;4982754;28;20050;-71
2022/01/22 11:54:12;;;;;;;7.93;2.92;;;7.40;99.90;;;;;;4991528;28;20526;-71
2022/01/22 11:56:47;;;;;;;9.02;2.90;;;7.30;99.90;;;;;;4986473;28;20041;-74
2022/01/22 11:59:19;;;;;;;7.07;3.03;;;7.30;99.90;;;;;;4988286;28;20073;-73
2022/01/22 12:01:50;;;;;;;10.10;3.40;;;7.30;99.90;;;;;;4970074;28;20073;-74
2022/01/22 12:04:20;;;;;;;9.32;3.25;;;7.30;99.90;;;;;;4971707;28;20494;-74
2022/01/22 12:07:04;;;;;;;7.32;2.88;;;7.40;99.90;;;;;;4986678;28;20038;-71
2022/01/22 12:09:53;;;;;;;10.80;3.55;;;7.30;99.90;;;;;;4976418;28;20054;-72
2022/01/22 12:15:41;;;;;;;11.82;4.38;;;7.30;99.90;;;;;;4967460;28;20054;-72
2022/01/22 12:18:17;;;;;;;8.98;3.88;;;7.30;99.90;;;;;;4986047;28;20042;-71
2022/01/22 12:23:39;;;;;;;18.75;5.93;;;7.30;99.90;;;;;;5008204;28;20108;-72
2022/01/22 12:26:05;;;;;;;14.35;6.10;;;7.30;99.90;;;;;;5021900;28;20046;-72
2022/01/22 12:28:39;;;;;;;18.10;6.78;;;7.30;99.90;;;;;;5005539;28;20040;-72
2022/01/22 12:31:09;;;;;;;22.33;6.97;;;7.30;99.90;;;;;;5007465;28;20053;-72
2022/01/22 12:33:35;;;;;;;16.40;6.07;;;7.30;99.90;;;;;;5006576;28;20117;-71
2022/01/22 12:36:03;;;;;;;14.15;4.50;;;7.30;99.90;;;;;;5007100;28;20561;-71
2022/01/22 12:38:49;;;;;;;10.80;4.20;;;7.30;99.90;;;;;;5009251;28;20053;-71
2022/01/22 12:41:32;;;;;;;20.17;5.63;;;7.30;99.90;;;;;;5009264;28;20113;-71
2022/01/22 12:44:27;;;;;;;13.95;4.55;;;7.30;99.90;;;;;;5004322;28;20531;-72
2022/01/22 12:47:00;;;;;;;13.13;4.53;;;7.30;99.90;;;;;;5009100;28;20054;-72
2022/01/22 12:49:28;;;;;;;19.95;4.82;;;7.30;99.90;;;;;;5012478;28;20042;-73
2022/01/22 12:51:55;;;;;;;13.35;4.50;;;7.30;99.90;;;;;;5009029;28;20054;-72
2022/01/22 12:54:33;;;;;;;16.50;4.82;;;7.30;99.90;;;;;;5008376;28;20073;-75
2022/01/22 12:57:03;;;;;;;12.57;5.38;;;7.30;99.90;;;;;;5012205;28;20137;-76
2022/01/22 12:59:32;;;;;;;12.93;4.78;;;7.30;99.90;;;;;;5017451;28;20056;-72
2022/01/22 13:01:57;;;;;;;18.33;5.13;;;7.30;99.90;;;;;;5013273;28;20046;-74
2022/01/22 13:04:23;;;;;;;10.77;5.32;;;7.30;99.90;;;;;;5007482;28;20050;-75
2022/01/22 13:06:52;;;;;;;17.88;6.28;;;7.30;99.90;;;;;;5009872;28;20052;-71
2022/01/22 13:09:18;;;;;;;13.65;6.43;;;7.30;99.90;;;;;;5010716;28;20096;-71
2022/01/22 13:11:48;;;;;;;13.40;6.47;;;7.30;99.90;;;;;;5008677;28;20073;-71
2022/01/22 13:14:34;;;;;;;15.93;6.28;;;7.30;99.90;;;;;;5009846;28;20037;-72
2022/01/22 13:16:59;;;;;;;13.82;7.07;;;7.30;99.90;;;;;;5009744;28;20057;-75
2022/01/22 13:19:29;;;;;;;14.60;6.88;;;7.20;99.90;;;;;;5010808;28;20042;-71
2022/01/22 13:21:59;;;;;;;15.23;7.55;;;7.20;99.90;;;;;;5001265;28;20054;-70
2022/01/22 13:24:27;;;;;;;16.50;7.25;;;7.20;99.90;;;;;;5009279;28;20429;-71
2022/01/22 13:29:33;;;;;;;14.27;7.07;;;7.20;99.90;;;;;;5009964;28;20084;-72
2022/01/22 13:32:02;;;;;;;18.90;7.97;;;7.20;99.90;;;;;;5010266;28;20050;-71
2022/01/22 13:34:45;;;;;;;18.65;7.85;;;7.20;99.90;;;;;;5010891;28;20049;-71
2022/01/22 13:48:28;;;;;;;15.23;7.65;;;7.20;99.90;;;;;;4984828;28;20102;-72
2022/01/22 13:50:54;;;;;;;18.02;8.80;;;7.10;99.90;;;;;;5010140;28;20056;-72
2022/01/22 13:53:21;;;;;;;14.45;7.90;;;7.20;99.90;;;;;;5008559;28;20073;-72
2022/01/22 13:56:21;;;;;;;14.88;7.30;;;7.20;99.90;;;;;;5010314;28;20052;-72
2022/01/22 13:58:47;;;;;;;15.73;7.15;;;7.20;99.90;;;;;;4975085;28;20070;-71
2022/01/22 14:01:41;;;;;;;19.23;7.20;;;7.10;99.90;;;;;;5008520;28;20041;-72
2022/01/22 14:04:11;;;;;;;11.98;6.55;;;7.20;99.90;;;;;;5010572;28;20553;-72
2022/01/22 14:06:38;;;;;;;17.23;7.05;;;7.20;99.90;;;;;;5009602;28;20121;-72
2022/01/22 14:09:21;;;;;;;15.13;6.15;;;7.10;99.90;;;;;;5009938;28;20038;-71
2022/01/22 14:12:08;;;;;;;20.55;6.22;;;7.20;99.90;;;;;;5008271;28;20046;-71
2022/01/22 14:14:53;;;;;;;15.15;6.63;;;7.20;99.90;;;;;;5009059;28;20049;-71
2022/01/22 14:17:20;;;;;;;15.85;6.90;;;7.20;99.90;;;;;;5016875;28;20053;-68
2022/01/22 14:19:56;;;;;;;17.38;5.80;;;7.20;99.90;;;;;;5008895;28;20046;-70
2022/01/22 14:22:22;;;;;;;22.90;7.18;;;7.20;99.90;;;;;;4989708;28;20065;-70
2022/01/22 14:24:47;;;;;;;14.38;6.03;;;7.20;99.90;;;;;;4991519;28;20046;-70
2022/01/22 14:27:20;;;;;;;14.48;5.55;;;7.20;99.90;;;;;;5006659;28;20095;-71
2022/01/22 14:29:47;;;;;;;13.00;4.78;;;7.20;99.90;;;;;;5007551;28;20121;-71
2022/01/22 14:32:17;;;;;;;15.52;4.85;;;7.20;99.90;;;;;;5009588;28;20077;-70
2022/01/22 14:34:43;;;;;;;17.55;4.80;;;7.20;99.90;;;;;;5008219;28;20089;-70
2022/01/22 14:37:28;;;;;;;13.13;3.97;;;7.20;99.90;;;;;;5008879;28;20077;-70
2022/01/22 14:45:30;;;;;;;14.43;3.97;;;7.20;99.90;;;;;;5009303;28;20050;-70
2022/01/22 14:47:58;;;;;;;16.05;4.63;;;7.10;99.90;;;;;;5005413;28;20124;-71
2022/01/22 14:50:24;;;;;;;9.52;3.63;;;7.10;99.90;;;;;;5007280;28;20604;-70
2022/01/22 14:52:54;;;;;;;11.03;4.27;;;7.10;99.90;;;;;;5008252;28;20417;-70
2022/01/22 14:55:20;;;;;;;14.15;4.57;;;7.10;99.90;;;;;;5006696;28;20049;-71
2022/01/22 14:57:46;;;;;;;15.98;5.07;;;7.10;99.90;;;;;;5005964;28;20042;-72
2022/01/22 15:00:15;;;;;;;14.10;4.57;;;7.10;99.90;;;;;;5008757;28;20055;-71